sensor_id;sensor_type;location;lat;lon;timestamp;P1;durP1;ratioP1;P2;durP2;ratioP2
33824;SDS011;20127;48.962;8.342;2023-06-26T00:00:06;11.63;;;8.13;;
33824;SDS011;20127;48.962;8.342;2023-06-26T00:03:08;8.20;;;7.40;;
33824;SDS011;20127;48.962;8.342;2023-06-26T00:06:15;8.65;;;7.78;;
33824;SDS011;20127;48.962;8.342;2023-06-26T00:09:16;11.27;;;7.88;;
33824;SDS011;20127;48.962;8.342;2023-06-26T00:12:19;10.18;;;7.30;;
33824;SDS011;20127;48.962;8.342;2023-06-26T00:15:21;9.50;;;8.48;;
33824;SDS011;20127;48.962;8.342;2023-06-26T00:18:23;16.73;;;9.77;;
33824;SDS011;20127;48.962;8.342;2023-06-26T00:21:24;10.15;;;7.72;;
33824;SDS011;20127;48.962;8.342;2023-06-26T00:24:27;10.73;;;8.65;;
33824;SDS011;20127;48.962;8.342;2023-06-26T00:27:30;12.50;;;8.23;;
33824;SDS011;20127;48.962;8.342;2023-06-26T00:30:32;11.73;;;9.88;;
33824;SDS011;20127;48.962;8.342;2023-06-26T00:33:33;11.23;;;8.00;;
33824;SDS011;20127;48.962;8.342;2023-06-26T00:36:35;9.45;;;8.02;;
33824;SDS011;20127;48.962;8.342;2023-06-26T00:39:37;10.38;;;8.63;;
33824;SDS011;20127;48.962;8.342;2023-06-26T00:42:40;8.25;;;7.30;;
33824;SDS011;20127;48.962;8.342;2023-06-26T00:45:41;9.20;;;8.27;;
33824;SDS011;20127;48.962;8.342;2023-06-26T00:48:44;11.55;;;8.40;;
33824;SDS011;20127;48.962;8.342;2023-06-26T00:51:49;10.20;;;8.20;;
33824;SDS011;20127;48.962;8.342;2023-06-26T00:54:52;9.98;;;8.30;;
33824;SDS011;20127;48.962;8.342;2023-06-26T00:57:55;8.65;;;7.85;;
33824;SDS011;20127;48.962;8.342;2023-06-26T01:00:57;10.38;;;9.02;;
33824;SDS011;20127;48.962;8.342;2023-06-26T01:04:00;9.27;;;7.35;;
33824;SDS011;20127;48.962;8.342;2023-06-26T01:07:03;13.75;;;8.90;;
33824;SDS011;20127;48.962;8.342;2023-06-26T01:10:07;9.85;;;8.23;;
33824;SDS011;20127;48.962;8.342;2023-06-26T01:13:10;12.48;;;9.32;;
33824;SDS011;20127;48.962;8.342;2023-06-26T01:16:13;10.88;;;8.00;;
33824;SDS011;20127;48.962;8.342;2023-06-26T01:19:19;13.25;;;9.95;;
33824;SDS011;20127;48.962;8.342;2023-06-26T01:22:27;9.95;;;8.75;;
33824;SDS011;20127;48.962;8.342;2023-06-26T01:25:48;12.52;;;10.93;;
33824;SDS011;20127;48.962;8.342;2023-06-26T01:28:58;10.63;;;8.68;;
33824;SDS011;20127;48.962;8.342;2023-06-26T01:32:03;10.35;;;8.07;;
33824;SDS011;20127;48.962;8.342;2023-06-26T01:35:06;16.20;;;10.95;;
33824;SDS011;20127;48.962;8.342;2023-06-26T01:38:12;12.57;;;9.38;;
33824;SDS011;20127;48.962;8.342;2023-06-26T01:41:16;9.75;;;8.10;;
33824;SDS011;20127;48.962;8.342;2023-06-26T01:44:23;8.10;;;7.30;;
33824;SDS011;20127;48.962;8.342;2023-06-26T01:47:27;9.00;;;7.80;;
33824;SDS011;20127;48.962;8.342;2023-06-26T01:50:31;11.05;;;8.25;;
33824;SDS011;20127;48.962;8.342;2023-06-26T01:53:38;10.93;;;8.80;;
33824;SDS011;20127;48.962;8.342;2023-06-26T01:56:46;10.50;;;8.15;;
33824;SDS011;20127;48.962;8.342;2023-06-26T01:59:53;14.43;;;8.55;;
33824;SDS011;20127;48.962;8.342;2023-06-26T02:02:57;9.13;;;8.23;;
33824;SDS011;20127;48.962;8.342;2023-06-26T02:05:58;9.60;;;8.40;;
33824;SDS011;20127;48.962;8.342;2023-06-26T02:09:00;9.35;;;8.00;;
33824;SDS011;20127;48.962;8.342;2023-06-26T02:12:04;10.75;;;9.07;;
33824;SDS011;20127;48.962;8.342;2023-06-26T02:15:08;11.30;;;8.70;;
33824;SDS011;20127;48.962;8.342;2023-06-26T02:18:10;9.88;;;8.88;;
33824;SDS011;20127;48.962;8.342;2023-06-26T02:21:12;11.25;;;9.77;;
33824;SDS011;20127;48.962;8.342;2023-06-26T02:24:14;11.07;;;8.48;;
33824;SDS011;20127;48.962;8.342;2023-06-26T02:27:16;11.45;;;9.68;;
33824;SDS011;20127;48.962;8.342;2023-06-26T02:30:19;9.10;;;7.22;;
33824;SDS011;20127;48.962;8.342;2023-06-26T02:33:20;12.27;;;9.45;;
33824;SDS011;20127;48.962;8.342;2023-06-26T02:36:22;10.88;;;8.10;;
33824;SDS011;20127;48.962;8.342;2023-06-26T02:39:24;10.35;;;7.07;;
33824;SDS011;20127;48.962;8.342;2023-06-26T02:42:25;10.00;;;8.43;;
33824;SDS011;20127;48.962;8.342;2023-06-26T02:45:28;9.20;;;8.25;;
33824;SDS011;20127;48.962;8.342;2023-06-26T02:48:30;10.48;;;8.70;;
33824;SDS011;20127;48.962;8.342;2023-06-26T02:51:32;12.57;;;9.13;;
33824;SDS011;20127;48.962;8.342;2023-06-26T02:54:34;11.00;;;8.27;;
33824;SDS011;20127;48.962;8.342;2023-06-26T02:57:36;10.95;;;8.32;;
33824;SDS011;20127;48.962;8.342;2023-06-26T03:00:39;10.40;;;7.97;;
33824;SDS011;20127;48.962;8.342;2023-06-26T03:03:41;12.45;;;9.30;;
33824;SDS011;20127;48.962;8.342;2023-06-26T03:06:43;10.57;;;8.88;;
33824;SDS011;20127;48.962;8.342;2023-06-26T03:09:45;9.73;;;7.45;;
33824;SDS011;20127;48.962;8.342;2023-06-26T03:12:46;15.35;;;8.98;;
33824;SDS011;20127;48.962;8.342;2023-06-26T03:15:49;22.20;;;10.15;;
33824;SDS011;20127;48.962;8.342;2023-06-26T03:18:51;13.55;;;9.95;;
33824;SDS011;20127;48.962;8.342;2023-06-26T03:21:53;10.80;;;8.95;;
33824;SDS011;20127;48.962;8.342;2023-06-26T03:24:55;13.57;;;8.32;;
33824;SDS011;20127;48.962;8.342;2023-06-26T03:27:56;16.05;;;8.57;;
33824;SDS011;20127;48.962;8.342;2023-06-26T03:30:59;9.60;;;7.63;;
33824;SDS011;20127;48.962;8.342;2023-06-26T03:34:01;12.77;;;8.20;;
33824;SDS011;20127;48.962;8.342;2023-06-26T03:37:03;10.65;;;8.30;;
33824;SDS011;20127;48.962;8.342;2023-06-26T03:40:05;10.52;;;9.00;;
33824;SDS011;20127;48.962;8.342;2023-06-26T03:43:08;10.38;;;8.35;;
33824;SDS011;20127;48.962;8.342;2023-06-26T03:46:11;9.02;;;7.68;;
33824;SDS011;20127;48.962;8.342;2023-06-26T03:49:12;14.55;;;10.55;;
33824;SDS011;20127;48.962;8.342;2023-06-26T03:52:14;10.73;;;9.07;;
33824;SDS011;20127;48.962;8.342;2023-06-26T03:55:16;10.20;;;8.38;;
33824;SDS011;20127;48.962;8.342;2023-06-26T03:58:18;9.55;;;8.52;;
33824;SDS011;20127;48.962;8.342;2023-06-26T04:01:21;13.85;;;8.85;;
33824;SDS011;20127;48.962;8.342;2023-06-26T04:04:23;8.93;;;8.02;;
33824;SDS011;20127;48.962;8.342;2023-06-26T04:07:25;9.82;;;8.27;;
33824;SDS011;20127;48.962;8.342;2023-06-26T04:10:26;9.80;;;8.85;;
33824;SDS011;20127;48.962;8.342;2023-06-26T04:13:28;10.82;;;8.38;;
33824;SDS011;20127;48.962;8.342;2023-06-26T04:16:31;9.95;;;8.35;;
33824;SDS011;20127;48.962;8.342;2023-06-26T04:19:33;8.60;;;7.72;;
33824;SDS011;20127;48.962;8.342;2023-06-26T04:22:36;9.85;;;8.60;;
33824;SDS011;20127;48.962;8.342;2023-06-26T04:25:37;8.23;;;7.15;;
33824;SDS011;20127;48.962;8.342;2023-06-26T04:28:39;9.18;;;8.13;;
33824;SDS011;20127;48.962;8.342;2023-06-26T04:31:42;11.07;;;7.97;;
33824;SDS011;20127;48.962;8.342;2023-06-26T04:34:46;11.30;;;7.82;;
33824;SDS011;20127;48.962;8.342;2023-06-26T04:37:48;9.25;;;8.35;;
33824;SDS011;20127;48.962;8.342;2023-06-26T04:40:49;13.57;;;7.80;;
33824;SDS011;20127;48.962;8.342;2023-06-26T04:43:51;11.90;;;8.43;;
33824;SDS011;20127;48.962;8.342;2023-06-26T04:46:54;9.82;;;7.50;;
33824;SDS011;20127;48.962;8.342;2023-06-26T04:49:56;12.43;;;8.35;;
33824;SDS011;20127;48.962;8.342;2023-06-26T04:52:57;12.02;;;7.43;;
33824;SDS011;20127;48.962;8.342;2023-06-26T04:55:59;8.85;;;7.85;;
33824;SDS011;20127;48.962;8.342;2023-06-26T04:59:01;7.82;;;7.03;;
33824;SDS011;20127;48.962;8.342;2023-06-26T05:02:04;9.98;;;7.03;;
33824;SDS011;20127;48.962;8.342;2023-06-26T05:05:06;14.40;;;6.97;;
33824;SDS011;20127;48.962;8.342;2023-06-26T05:08:15;9.20;;;7.03;;
33824;SDS011;20127;48.962;8.342;2023-06-26T05:11:17;10.88;;;7.53;;
33824;SDS011;20127;48.962;8.342;2023-06-26T05:14:19;11.32;;;7.65;;
33824;SDS011;20127;48.962;8.342;2023-06-26T05:17:22;8.73;;;6.85;;
33824;SDS011;20127;48.962;8.342;2023-06-26T05:20:24;8.20;;;7.40;;
33824;SDS011;20127;48.962;8.342;2023-06-26T05:23:25;12.05;;;6.78;;
33824;SDS011;20127;48.962;8.342;2023-06-26T05:26:31;8.18;;;7.43;;
33824;SDS011;20127;48.962;8.342;2023-06-26T05:29:33;8.50;;;7.60;;
33824;SDS011;20127;48.962;8.342;2023-06-26T05:32:37;7.93;;;7.13;;
33824;SDS011;20127;48.962;8.342;2023-06-26T05:35:40;9.00;;;7.53;;
33824;SDS011;20127;48.962;8.342;2023-06-26T05:38:44;7.30;;;6.70;;
33824;SDS011;20127;48.962;8.342;2023-06-26T05:41:46;7.65;;;6.85;;
33824;SDS011;20127;48.962;8.342;2023-06-26T05:44:48;9.63;;;7.05;;
33824;SDS011;20127;48.962;8.342;2023-06-26T05:47:51;7.75;;;6.38;;
33824;SDS011;20127;48.962;8.342;2023-06-26T05:50:53;8.68;;;6.50;;
33824;SDS011;20127;48.962;8.342;2023-06-26T05:53:55;8.57;;;7.53;;
33824;SDS011;20127;48.962;8.342;2023-06-26T05:56:58;8.60;;;7.13;;
33824;SDS011;20127;48.962;8.342;2023-06-26T06:00:00;10.20;;;7.75;;
33824;SDS011;20127;48.962;8.342;2023-06-26T06:03:04;9.20;;;7.47;;
33824;SDS011;20127;48.962;8.342;2023-06-26T06:06:06;9.10;;;6.60;;
33824;SDS011;20127;48.962;8.342;2023-06-26T06:09:08;16.27;;;7.90;;
33824;SDS011;20127;48.962;8.342;2023-06-26T06:12:09;8.10;;;7.32;;
33824;SDS011;20127;48.962;8.342;2023-06-26T06:15:11;12.23;;;7.90;;
33824;SDS011;20127;48.962;8.342;2023-06-26T06:18:14;11.68;;;7.95;;
33824;SDS011;20127;48.962;8.342;2023-06-26T06:21:16;10.63;;;7.93;;
33824;SDS011;20127;48.962;8.342;2023-06-26T06:24:18;9.50;;;7.43;;
33824;SDS011;20127;48.962;8.342;2023-06-26T06:27:19;8.20;;;7.13;;
33824;SDS011;20127;48.962;8.342;2023-06-26T06:30:21;14.55;;;9.10;;
33824;SDS011;20127;48.962;8.342;2023-06-26T06:33:24;11.30;;;8.25;;
33824;SDS011;20127;48.962;8.342;2023-06-26T06:36:26;13.65;;;8.05;;
33824;SDS011;20127;48.962;8.342;2023-06-26T06:39:28;9.18;;;7.38;;
33824;SDS011;20127;48.962;8.342;2023-06-26T06:42:30;8.82;;;7.93;;
33824;SDS011;20127;48.962;8.342;2023-06-26T06:45:31;9.07;;;6.88;;
33824;SDS011;20127;48.962;8.342;2023-06-26T06:48:34;8.52;;;6.80;;
33824;SDS011;20127;48.962;8.342;2023-06-26T06:51:36;9.15;;;6.93;;
33824;SDS011;20127;48.962;8.342;2023-06-26T06:54:50;9.13;;;6.47;;
33824;SDS011;20127;48.962;8.342;2023-06-26T06:57:53;8.55;;;7.47;;
33824;SDS011;20127;48.962;8.342;2023-06-26T07:00:55;10.20;;;7.30;;
33824;SDS011;20127;48.962;8.342;2023-06-26T07:03:58;7.30;;;6.60;;
33824;SDS011;20127;48.962;8.342;2023-06-26T07:07:00;6.93;;;6.13;;
33824;SDS011;20127;48.962;8.342;2023-06-26T07:10:02;8.80;;;7.45;;
33824;SDS011;20127;48.962;8.342;2023-06-26T07:13:06;8.93;;;6.40;;
33824;SDS011;20127;48.962;8.342;2023-06-26T07:16:08;7.85;;;6.95;;
33824;SDS011;20127;48.962;8.342;2023-06-26T07:19:12;7.82;;;6.35;;
33824;SDS011;20127;48.962;8.342;2023-06-26T07:22:14;7.28;;;6.60;;
33824;SDS011;20127;48.962;8.342;2023-06-26T07:25:16;8.85;;;5.80;;
33824;SDS011;20127;48.962;8.342;2023-06-26T07:28:18;6.72;;;5.60;;
33824;SDS011;20127;48.962;8.342;2023-06-26T07:31:20;6.47;;;5.88;;
33824;SDS011;20127;48.962;8.342;2023-06-26T07:34:23;7.15;;;6.45;;
33824;SDS011;20127;48.962;8.342;2023-06-26T07:37:24;9.70;;;6.60;;
33824;SDS011;20127;48.962;8.342;2023-06-26T07:40:26;7.55;;;6.28;;
33824;SDS011;20127;48.962;8.342;2023-06-26T07:43:28;6.05;;;5.53;;
33824;SDS011;20127;48.962;8.342;2023-06-26T07:46:31;5.65;;;5.13;;
33824;SDS011;20127;48.962;8.342;2023-06-26T07:49:34;5.78;;;5.18;;
33824;SDS011;20127;48.962;8.342;2023-06-26T07:52:36;9.38;;;6.20;;
33824;SDS011;20127;48.962;8.342;2023-06-26T07:55:37;7.90;;;5.55;;
33824;SDS011;20127;48.962;8.342;2023-06-26T07:58:39;6.63;;;5.53;;
33824;SDS011;20127;48.962;8.342;2023-06-26T08:01:41;6.57;;;5.90;;
33824;SDS011;20127;48.962;8.342;2023-06-26T08:04:44;7.30;;;5.93;;
33824;SDS011;20127;48.962;8.342;2023-06-26T08:07:45;6.30;;;5.70;;
33824;SDS011;20127;48.962;8.342;2023-06-26T08:10:47;6.78;;;5.55;;
33824;SDS011;20127;48.962;8.342;2023-06-26T08:13:49;6.82;;;6.13;;
33824;SDS011;20127;48.962;8.342;2023-06-26T08:16:51;9.85;;;6.22;;
33824;SDS011;20127;48.962;8.342;2023-06-26T08:19:54;6.53;;;5.88;;
33824;SDS011;20127;48.962;8.342;2023-06-26T08:22:55;6.82;;;6.18;;
33824;SDS011;20127;48.962;8.342;2023-06-26T08:25:57;10.77;;;6.15;;
33824;SDS011;20127;48.962;8.342;2023-06-26T08:28:59;11.68;;;6.20;;
33824;SDS011;20127;48.962;8.342;2023-06-26T08:32:00;7.30;;;6.50;;
33824;SDS011;20127;48.962;8.342;2023-06-26T08:35:05;7.35;;;6.10;;
33824;SDS011;20127;48.962;8.342;2023-06-26T08:38:10;7.10;;;6.43;;
33824;SDS011;20127;48.962;8.342;2023-06-26T08:41:11;7.57;;;6.88;;
33824;SDS011;20127;48.962;8.342;2023-06-26T08:44:13;6.40;;;5.88;;
33824;SDS011;20127;48.962;8.342;2023-06-26T08:47:15;7.40;;;5.45;;
33824;SDS011;20127;48.962;8.342;2023-06-26T08:50:18;7.85;;;5.95;;
33824;SDS011;20127;48.962;8.342;2023-06-26T08:53:27;9.27;;;5.70;;
33824;SDS011;20127;48.962;8.342;2023-06-26T08:56:35;6.13;;;5.53;;
33824;SDS011;20127;48.962;8.342;2023-06-26T08:59:38;6.85;;;5.88;;
33824;SDS011;20127;48.962;8.342;2023-06-26T09:02:40;7.22;;;5.30;;
33824;SDS011;20127;48.962;8.342;2023-06-26T09:05:43;7.45;;;5.38;;
33824;SDS011;20127;48.962;8.342;2023-06-26T09:08:45;5.75;;;5.05;;
33824;SDS011;20127;48.962;8.342;2023-06-26T09:11:47;6.32;;;5.72;;
33824;SDS011;20127;48.962;8.342;2023-06-26T09:14:49;7.53;;;5.38;;
33824;SDS011;20127;48.962;8.342;2023-06-26T09:17:53;5.32;;;4.82;;
33824;SDS011;20127;48.962;8.342;2023-06-26T09:20:58;6.20;;;5.70;;
33824;SDS011;20127;48.962;8.342;2023-06-26T09:24:00;6.50;;;5.85;;
33824;SDS011;20127;48.962;8.342;2023-06-26T09:27:02;5.88;;;5.13;;
33824;SDS011;20127;48.962;8.342;2023-06-26T09:30:05;9.32;;;6.20;;
33824;SDS011;20127;48.962;8.342;2023-06-26T09:33:12;6.72;;;6.10;;
33824;SDS011;20127;48.962;8.342;2023-06-26T09:36:20;8.73;;;5.60;;
33824;SDS011;20127;48.962;8.342;2023-06-26T09:39:22;12.55;;;7.22;;
33824;SDS011;20127;48.962;8.342;2023-06-26T09:42:23;10.50;;;5.53;;
33824;SDS011;20127;48.962;8.342;2023-06-26T09:45:25;7.32;;;6.07;;
33824;SDS011;20127;48.962;8.342;2023-06-26T09:48:27;6.68;;;6.07;;
33824;SDS011;20127;48.962;8.342;2023-06-26T09:51:31;6.30;;;5.80;;
33824;SDS011;20127;48.962;8.342;2023-06-26T09:54:33;8.52;;;6.25;;
33824;SDS011;20127;48.962;8.342;2023-06-26T09:57:37;7.93;;;6.32;;
33824;SDS011;20127;48.962;8.342;2023-06-26T10:00:39;7.35;;;6.15;;
33824;SDS011;20127;48.962;8.342;2023-06-26T10:03:41;6.25;;;5.65;;
33824;SDS011;20127;48.962;8.342;2023-06-26T10:06:46;8.23;;;5.57;;
33824;SDS011;20127;48.962;8.342;2023-06-26T10:09:49;6.50;;;5.90;;
33824;SDS011;20127;48.962;8.342;2023-06-26T10:12:54;6.70;;;5.70;;
33824;SDS011;20127;48.962;8.342;2023-06-26T10:16:04;8.55;;;5.95;;
33824;SDS011;20127;48.962;8.342;2023-06-26T10:19:10;6.32;;;5.65;;
33824;SDS011;20127;48.962;8.342;2023-06-26T10:22:14;6.63;;;5.97;;
33824;SDS011;20127;48.962;8.342;2023-06-26T10:25:18;6.32;;;5.30;;
33824;SDS011;20127;48.962;8.342;2023-06-26T10:28:20;6.38;;;5.68;;
33824;SDS011;20127;48.962;8.342;2023-06-26T10:31:24;8.50;;;5.57;;
33824;SDS011;20127;48.962;8.342;2023-06-26T10:34:28;11.80;;;4.65;;
33824;SDS011;20127;48.962;8.342;2023-06-26T10:37:41;9.32;;;5.90;;
33824;SDS011;20127;48.962;8.342;2023-06-26T10:40:45;5.93;;;4.88;;
33824;SDS011;20127;48.962;8.342;2023-06-26T10:43:50;7.30;;;5.47;;
33824;SDS011;20127;48.962;8.342;2023-06-26T10:46:53;6.07;;;5.57;;
33824;SDS011;20127;48.962;8.342;2023-06-26T10:49:56;5.90;;;5.40;;
33824;SDS011;20127;48.962;8.342;2023-06-26T10:53:23;9.07;;;5.65;;
33824;SDS011;20127;48.962;8.342;2023-06-26T10:56:42;7.70;;;5.45;;
33824;SDS011;20127;48.962;8.342;2023-06-26T10:59:45;7.18;;;6.47;;
33824;SDS011;20127;48.962;8.342;2023-06-26T11:02:47;8.02;;;5.93;;
33824;SDS011;20127;48.962;8.342;2023-06-26T11:05:57;7.57;;;5.22;;
33824;SDS011;20127;48.962;8.342;2023-06-26T11:09:13;6.18;;;5.40;;
33824;SDS011;20127;48.962;8.342;2023-06-26T11:12:26;6.65;;;5.28;;
33824;SDS011;20127;48.962;8.342;2023-06-26T11:15:36;5.93;;;5.32;;
33824;SDS011;20127;48.962;8.342;2023-06-26T11:18:39;5.45;;;4.90;;
33824;SDS011;20127;48.962;8.342;2023-06-26T11:21:40;7.57;;;5.90;;
33824;SDS011;20127;48.962;8.342;2023-06-26T11:24:43;5.80;;;5.20;;
33824;SDS011;20127;48.962;8.342;2023-06-26T11:27:45;8.00;;;4.65;;
33824;SDS011;20127;48.962;8.342;2023-06-26T11:30:47;6.07;;;4.35;;
33824;SDS011;20127;48.962;8.342;2023-06-26T11:33:49;4.65;;;4.05;;
33824;SDS011;20127;48.962;8.342;2023-06-26T11:36:51;6.85;;;5.20;;
33824;SDS011;20127;48.962;8.342;2023-06-26T11:39:54;8.80;;;4.43;;
33824;SDS011;20127;48.962;8.342;2023-06-26T11:42:56;12.77;;;5.85;;
33824;SDS011;20127;48.962;8.342;2023-06-26T11:45:59;4.80;;;4.40;;
33824;SDS011;20127;48.962;8.342;2023-06-26T11:49:02;8.15;;;4.35;;
33824;SDS011;20127;48.962;8.342;2023-06-26T11:52:04;6.13;;;4.18;;
33824;SDS011;20127;48.962;8.342;2023-06-26T11:55:08;5.45;;;4.22;;
33824;SDS011;20127;48.962;8.342;2023-06-26T11:58:11;8.50;;;4.13;;
33824;SDS011;20127;48.962;8.342;2023-06-26T12:01:15;3.95;;;3.55;;
33824;SDS011;20127;48.962;8.342;2023-06-26T12:04:17;6.40;;;3.78;;
33824;SDS011;20127;48.962;8.342;2023-06-26T12:07:20;4.20;;;3.60;;
33824;SDS011;20127;48.962;8.342;2023-06-26T12:10:24;6.97;;;3.25;;
33824;SDS011;20127;48.962;8.342;2023-06-26T12:13:26;5.47;;;3.58;;
33824;SDS011;20127;48.962;8.342;2023-06-26T12:16:28;4.47;;;3.95;;
33824;SDS011;20127;48.962;8.342;2023-06-26T12:19:31;10.02;;;3.83;;
33824;SDS011;20127;48.962;8.342;2023-06-26T12:22:33;5.68;;;2.75;;
33824;SDS011;20127;48.962;8.342;2023-06-26T12:25:37;8.80;;;3.50;;
33824;SDS011;20127;48.962;8.342;2023-06-26T12:28:39;4.95;;;3.20;;
33824;SDS011;20127;48.962;8.342;2023-06-26T12:31:40;4.50;;;3.25;;
33824;SDS011;20127;48.962;8.342;2023-06-26T12:34:46;4.78;;;3.35;;
33824;SDS011;20127;48.962;8.342;2023-06-26T12:37:49;8.02;;;3.28;;
33824;SDS011;20127;48.962;8.342;2023-06-26T12:40:52;7.70;;;4.13;;
33824;SDS011;20127;48.962;8.342;2023-06-26T12:43:58;4.53;;;3.25;;
33824;SDS011;20127;48.962;8.342;2023-06-26T12:47:00;6.18;;;2.58;;
33824;SDS011;20127;48.962;8.342;2023-06-26T12:50:04;6.95;;;3.65;;
33824;SDS011;20127;48.962;8.342;2023-06-26T12:53:07;6.75;;;3.70;;
33824;SDS011;20127;48.962;8.342;2023-06-26T12:56:10;6.70;;;3.15;;
33824;SDS011;20127;48.962;8.342;2023-06-26T12:59:12;4.57;;;3.30;;
33824;SDS011;20127;48.962;8.342;2023-06-26T13:02:13;6.30;;;3.35;;
33824;SDS011;20127;48.962;8.342;2023-06-26T13:05:15;23.48;;;4.72;;
33824;SDS011;20127;48.962;8.342;2023-06-26T13:08:17;8.77;;;4.75;;
33824;SDS011;20127;48.962;8.342;2023-06-26T13:11:20;14.57;;;4.90;;
33824;SDS011;20127;48.962;8.342;2023-06-26T13:14:22;6.30;;;3.58;;
33824;SDS011;20127;48.962;8.342;2023-06-26T13:17:24;8.43;;;4.25;;
33824;SDS011;20127;48.962;8.342;2023-06-26T13:20:26;8.20;;;3.30;;
33824;SDS011;20127;48.962;8.342;2023-06-26T13:23:28;9.27;;;3.30;;
33824;SDS011;20127;48.962;8.342;2023-06-26T13:26:31;6.88;;;4.18;;
33824;SDS011;20127;48.962;8.342;2023-06-26T13:29:33;6.13;;;3.42;;
33824;SDS011;20127;48.962;8.342;2023-06-26T13:32:35;5.93;;;4.50;;
33824;SDS011;20127;48.962;8.342;2023-06-26T13:35:36;6.93;;;5.00;;
33824;SDS011;20127;48.962;8.342;2023-06-26T13:38:39;5.55;;;5.05;;
33824;SDS011;20127;48.962;8.342;2023-06-26T13:41:42;11.25;;;5.05;;
33824;SDS011;20127;48.962;8.342;2023-06-26T13:44:44;6.78;;;5.38;;
33824;SDS011;20127;48.962;8.342;2023-06-26T13:47:45;6.70;;;4.97;;
33824;SDS011;20127;48.962;8.342;2023-06-26T13:50:47;5.63;;;5.03;;
33824;SDS011;20127;48.962;8.342;2023-06-26T13:53:49;13.93;;;5.88;;
33824;SDS011;20127;48.962;8.342;2023-06-26T13:56:52;7.07;;;5.97;;
33824;SDS011;20127;48.962;8.342;2023-06-26T13:59:57;9.20;;;5.07;;
33824;SDS011;20127;48.962;8.342;2023-06-26T14:02:59;9.65;;;5.10;;
33824;SDS011;20127;48.962;8.342;2023-06-26T14:06:00;9.00;;;5.47;;
33824;SDS011;20127;48.962;8.342;2023-06-26T14:09:02;13.80;;;5.68;;
33824;SDS011;20127;48.962;8.342;2023-06-26T14:12:06;6.68;;;5.60;;
33824;SDS011;20127;48.962;8.342;2023-06-26T14:15:09;8.32;;;4.78;;
33824;SDS011;20127;48.962;8.342;2023-06-26T14:18:11;8.30;;;5.45;;
33824;SDS011;20127;48.962;8.342;2023-06-26T14:21:13;13.02;;;6.53;;
33824;SDS011;20127;48.962;8.342;2023-06-26T14:24:15;8.32;;;4.50;;
33824;SDS011;20127;48.962;8.342;2023-06-26T14:27:18;6.82;;;5.85;;
33824;SDS011;20127;48.962;8.342;2023-06-26T14:30:19;11.15;;;5.45;;
33824;SDS011;20127;48.962;8.342;2023-06-26T14:33:21;7.50;;;5.20;;
33824;SDS011;20127;48.962;8.342;2023-06-26T14:36:23;7.78;;;6.20;;
33824;SDS011;20127;48.962;8.342;2023-06-26T14:39:30;10.27;;;5.65;;
33824;SDS011;20127;48.962;8.342;2023-06-26T14:42:33;7.28;;;4.90;;
33824;SDS011;20127;48.962;8.342;2023-06-26T14:45:35;8.23;;;5.18;;
33824;SDS011;20127;48.962;8.342;2023-06-26T14:48:37;8.55;;;4.80;;
33824;SDS011;20127;48.962;8.342;2023-06-26T14:51:38;9.70;;;4.50;;
33824;SDS011;20127;48.962;8.342;2023-06-26T14:54:40;4.95;;;3.78;;
33824;SDS011;20127;48.962;8.342;2023-06-26T14:57:43;6.18;;;3.45;;
33824;SDS011;20127;48.962;8.342;2023-06-26T15:00:45;5.85;;;3.35;;
33824;SDS011;20127;48.962;8.342;2023-06-26T15:03:48;7.45;;;3.53;;
33824;SDS011;20127;48.962;8.342;2023-06-26T15:06:50;4.97;;;2.88;;
33824;SDS011;20127;48.962;8.342;2023-06-26T15:09:53;6.47;;;2.17;;
33824;SDS011;20127;48.962;8.342;2023-06-26T15:12:56;4.47;;;2.10;;
33824;SDS011;20127;48.962;8.342;2023-06-26T15:15:58;6.10;;;2.13;;
33824;SDS011;20127;48.962;8.342;2023-06-26T15:19:00;5.95;;;2.10;;
33824;SDS011;20127;48.962;8.342;2023-06-26T15:22:02;3.65;;;2.50;;
33824;SDS011;20127;48.962;8.342;2023-06-26T15:25:04;5.00;;;1.80;;
33824;SDS011;20127;48.962;8.342;2023-06-26T15:28:08;5.57;;;1.67;;
33824;SDS011;20127;48.962;8.342;2023-06-26T15:31:10;6.55;;;1.70;;
33824;SDS011;20127;48.962;8.342;2023-06-26T15:34:11;7.65;;;1.60;;
33824;SDS011;20127;48.962;8.342;2023-06-26T15:37:13;1.63;;;1.40;;
33824;SDS011;20127;48.962;8.342;2023-06-26T15:40:15;3.78;;;2.22;;
33824;SDS011;20127;48.962;8.342;2023-06-26T15:43:18;6.28;;;1.60;;
33824;SDS011;20127;48.962;8.342;2023-06-26T15:46:21;4.03;;;1.45;;
33824;SDS011;20127;48.962;8.342;2023-06-26T15:49:22;4.90;;;1.85;;
33824;SDS011;20127;48.962;8.342;2023-06-26T15:52:24;5.78;;;2.00;;
33824;SDS011;20127;48.962;8.342;2023-06-26T15:55:26;3.10;;;1.50;;
33824;SDS011;20127;48.962;8.342;2023-06-26T15:58:29;10.07;;;2.70;;
33824;SDS011;20127;48.962;8.342;2023-06-26T16:01:30;6.60;;;1.95;;
33824;SDS011;20127;48.962;8.342;2023-06-26T16:04:32;5.40;;;1.85;;
33824;SDS011;20127;48.962;8.342;2023-06-26T16:07:35;2.42;;;1.88;;
33824;SDS011;20127;48.962;8.342;2023-06-26T16:10:36;3.03;;;1.67;;
33824;SDS011;20127;48.962;8.342;2023-06-26T16:13:39;5.10;;;1.48;;
33824;SDS011;20127;48.962;8.342;2023-06-26T16:16:41;5.93;;;1.70;;
33824;SDS011;20127;48.962;8.342;2023-06-26T16:19:43;2.80;;;2.00;;
33824;SDS011;20127;48.962;8.342;2023-06-26T16:22:44;5.80;;;3.15;;
33824;SDS011;20127;48.962;8.342;2023-06-26T16:25:46;6.05;;;2.50;;
33824;SDS011;20127;48.962;8.342;2023-06-26T16:28:50;3.53;;;1.85;;
33824;SDS011;20127;48.962;8.342;2023-06-26T16:31:52;7.03;;;2.83;;
33824;SDS011;20127;48.962;8.342;2023-06-26T16:34:54;4.95;;;1.75;;
33824;SDS011;20127;48.962;8.342;2023-06-26T16:37:55;3.33;;;1.83;;
33824;SDS011;20127;48.962;8.342;2023-06-26T16:40:57;7.47;;;1.63;;
33824;SDS011;20127;48.962;8.342;2023-06-26T16:44:00;1.58;;;1.17;;
33824;SDS011;20127;48.962;8.342;2023-06-26T16:47:02;2.40;;;1.50;;
33824;SDS011;20127;48.962;8.342;2023-06-26T16:50:04;6.65;;;1.35;;
33824;SDS011;20127;48.962;8.342;2023-06-26T16:53:07;9.95;;;1.85;;
33824;SDS011;20127;48.962;8.342;2023-06-26T16:56:08;6.90;;;2.05;;
33824;SDS011;20127;48.962;8.342;2023-06-26T16:59:11;9.77;;;1.80;;
33824;SDS011;20127;48.962;8.342;2023-06-26T17:02:13;4.22;;;2.55;;
33824;SDS011;20127;48.962;8.342;2023-06-26T17:05:15;6.80;;;2.20;;
33824;SDS011;20127;48.962;8.342;2023-06-26T17:08:17;3.38;;;1.33;;
33824;SDS011;20127;48.962;8.342;2023-06-26T17:11:18;4.97;;;1.80;;
33824;SDS011;20127;48.962;8.342;2023-06-26T17:14:21;7.75;;;2.80;;
33824;SDS011;20127;48.962;8.342;2023-06-26T17:17:23;2.88;;;1.92;;
33824;SDS011;20127;48.962;8.342;2023-06-26T17:20:25;3.67;;;1.83;;
33824;SDS011;20127;48.962;8.342;2023-06-26T17:23:26;3.47;;;2.08;;
33824;SDS011;20127;48.962;8.342;2023-06-26T17:26:29;5.78;;;1.70;;
33824;SDS011;20127;48.962;8.342;2023-06-26T17:29:32;6.15;;;1.92;;
33824;SDS011;20127;48.962;8.342;2023-06-26T17:32:34;3.60;;;1.23;;
33824;SDS011;20127;48.962;8.342;2023-06-26T17:35:35;4.78;;;1.65;;
33824;SDS011;20127;48.962;8.342;2023-06-26T17:38:37;5.28;;;1.63;;
33824;SDS011;20127;48.962;8.342;2023-06-26T17:41:41;7.85;;;2.10;;
33824;SDS011;20127;48.962;8.342;2023-06-26T17:44:44;3.95;;;1.58;;
33824;SDS011;20127;48.962;8.342;2023-06-26T17:47:46;4.28;;;1.90;;
33824;SDS011;20127;48.962;8.342;2023-06-26T17:50:48;6.03;;;2.20;;
33824;SDS011;20127;48.962;8.342;2023-06-26T17:53:50;6.68;;;1.70;;
33824;SDS011;20127;48.962;8.342;2023-06-26T17:56:52;3.90;;;2.05;;
33824;SDS011;20127;48.962;8.342;2023-06-26T17:59:55;4.43;;;1.90;;
33824;SDS011;20127;48.962;8.342;2023-06-26T18:02:57;3.72;;;1.35;;
33824;SDS011;20127;48.962;8.342;2023-06-26T18:05:58;3.75;;;1.85;;
33824;SDS011;20127;48.962;8.342;2023-06-26T18:09:00;3.38;;;2.13;;
33824;SDS011;20127;48.962;8.342;2023-06-26T18:12:08;3.53;;;1.90;;
33824;SDS011;20127;48.962;8.342;2023-06-26T18:15:12;5.50;;;2.20;;